createdAt,value
2022-10-04T00:01:51.827Z,2.10
2022-10-04T00:04:32.908Z,2.07
2022-10-04T00:07:05.336Z,1.63
2022-10-04T00:09:50.268Z,2.60
2022-10-04T00:12:48.739Z,2.30
2022-10-04T00:15:33.225Z,2.53
2022-10-04T00:18:25.555Z,2.20
2022-10-04T00:20:55.490Z,1.90
2022-10-04T00:23:25.665Z,2.73
2022-10-04T00:26:03.287Z,2.30
2022-10-04T00:28:38.113Z,2.47
2022-10-04T00:31:18.418Z,2.57
2022-10-04T00:33:49.128Z,1.90
2022-10-04T00:36:25.271Z,2.87
2022-10-04T00:39:08.085Z,2.80
2022-10-04T00:41:48.415Z,2.23
2022-10-04T00:44:52.042Z,2.53
2022-10-04T00:47:46.793Z,2.27
2022-10-04T00:50:48.817Z,2.20
2022-10-04T00:53:36.757Z,2.63
2022-10-04T00:56:11.446Z,2.53
2022-10-04T00:58:55.383Z,2.17
2022-10-04T01:01:28.650Z,1.93
2022-10-04T01:04:00.488Z,2.17
2022-10-04T01:06:31.031Z,2.17
2022-10-04T01:09:06.835Z,2.40
2022-10-04T01:11:46.292Z,2.10
2022-10-04T01:14:40.159Z,2.03
2022-10-04T01:17:10.805Z,2.30
2022-10-04T01:19:41.465Z,2.10
2022-10-04T01:22:11.953Z,2.40
2022-10-04T01:24:42.451Z,2.10
2022-10-04T01:27:40.060Z,2.83
2022-10-04T01:30:16.693Z,2.87
2022-10-04T01:32:45.361Z,2.30
2022-10-04T01:35:14.997Z,2.23
2022-10-04T01:37:44.618Z,2.20
2022-10-04T01:40:12.306Z,1.80
2022-10-04T01:42:45.994Z,2.53
2022-10-04T01:45:32.975Z,2.40
2022-10-04T01:48:09.185Z,2.53
2022-10-04T01:50:45.364Z,2.20
2022-10-04T01:53:26.784Z,2.00
2022-10-04T01:56:24.012Z,2.37
2022-10-04T01:59:03.800Z,2.87
2022-10-04T02:01:36.563Z,2.30
2022-10-04T02:04:22.099Z,2.17
2022-10-04T02:06:56.380Z,2.30
2022-10-04T02:09:34.100Z,2.53
2022-10-04T02:12:01.998Z,2.00
2022-10-04T02:14:33.756Z,2.13
2022-10-04T02:17:10.588Z,2.43
2022-10-04T02:19:42.405Z,2.17
2022-10-04T02:22:11.533Z,1.63
2022-10-04T02:24:45.716Z,1.80
2022-10-04T02:27:14.034Z,2.50
2022-10-04T02:29:43.855Z,2.43
2022-10-04T02:32:32.701Z,1.80
2022-10-04T02:35:00.065Z,2.03
2022-10-04T02:37:30.194Z,2.67
2022-10-04T02:40:14.018Z,2.70
2022-10-04T02:43:02.655Z,1.70
2022-10-04T02:46:17.707Z,2.10
2022-10-04T02:48:58.719Z,1.97
2022-10-04T02:51:37.476Z,1.83
2022-10-04T02:54:16.898Z,2.50
2022-10-04T02:56:47.024Z,2.23
2022-10-04T02:59:16.769Z,2.83
2022-10-04T03:01:53.590Z,1.80
2022-10-04T03:04:24.542Z,2.27
2022-10-04T03:06:53.414Z,2.43
2022-10-04T03:09:27.408Z,3.20
2022-10-04T03:11:56.665Z,2.10
2022-10-04T03:14:30.411Z,2.40
2022-10-04T03:17:04.027Z,3.00
2022-10-04T03:19:33.665Z,2.40
2022-10-04T03:22:07.876Z,2.43
2022-10-04T03:24:44.044Z,2.07
2022-10-04T03:27:23.180Z,2.83
2022-10-04T03:29:50.483Z,3.40
2022-10-04T03:32:19.555Z,2.73
2022-10-04T03:35:02.522Z,4.63
2022-10-04T03:37:35.501Z,3.30
2022-10-04T03:40:03.615Z,3.37
2022-10-04T03:42:35.967Z,4.10
2022-10-04T03:45:17.532Z,3.67
2022-10-04T03:47:48.646Z,3.07
2022-10-04T03:50:34.137Z,3.70
2022-10-04T03:53:10.293Z,3.00
2022-10-04T03:55:44.368Z,4.00
2022-10-04T03:58:14.813Z,3.77
2022-10-04T04:01:00.545Z,3.10
2022-10-04T04:03:40.489Z,2.77
2022-10-04T04:06:18.936Z,3.40
2022-10-04T04:08:52.225Z,2.90
2022-10-04T04:11:27.437Z,3.00
2022-10-04T04:14:12.164Z,2.90
2022-10-04T04:16:44.707Z,3.13
2022-10-04T04:19:16.611Z,3.23
2022-10-04T04:21:49.026Z,3.47
2022-10-04T04:24:28.525Z,3.47
2022-10-04T04:27:05.301Z,3.60
2022-10-04T04:29:55.221Z,3.50
2022-10-04T04:32:50.890Z,2.50
2022-10-04T04:35:31.755Z,2.70
2022-10-04T04:38:22.770Z,3.60
2022-10-04T04:40:55.616Z,3.67
2022-10-04T04:43:31.091Z,3.47
2022-10-04T04:46:26.195Z,3.60
2022-10-04T04:49:02.286Z,3.60
2022-10-04T04:51:32.588Z,3.37
2022-10-04T04:54:06.272Z,3.80
2022-10-04T04:56:36.864Z,3.60
2022-10-04T04:59:09.265Z,4.67
2022-10-04T05:01:46.455Z,4.20
2022-10-04T05:04:24.914Z,3.87
2022-10-04T05:07:19.082Z,3.50
2022-10-04T05:09:48.974Z,3.77
2022-10-04T05:12:25.096Z,3.30
2022-10-04T05:14:53.977Z,3.57
2022-10-04T05:17:26.883Z,7.07
2022-10-04T05:19:58.426Z,4.10
2022-10-04T05:22:30.099Z,3.77
2022-10-04T05:25:03.019Z,3.60
2022-10-04T05:27:38.379Z,3.63
2022-10-04T05:30:09.363Z,3.30
2022-10-04T05:33:16.481Z,4.20
2022-10-04T05:36:04.100Z,3.10
2022-10-04T05:38:53.610Z,3.00
2022-10-04T05:41:55.217Z,3.00
2022-10-04T05:44:46.329Z,3.60
2022-10-04T05:47:14.819Z,3.60
2022-10-04T05:49:46.425Z,3.97
2022-10-04T05:52:36.791Z,3.20
2022-10-04T05:55:16.123Z,3.07
2022-10-04T05:58:26.550Z,3.17
2022-10-04T06:01:10.763Z,3.63
2022-10-04T06:04:06.153Z,3.50
2022-10-04T06:06:51.436Z,3.43
2022-10-04T06:09:56.333Z,3.07
2022-10-04T06:13:18.072Z,3.30
2022-10-04T06:16:13.251Z,3.80
2022-10-04T06:18:46.164Z,3.37
2022-10-04T06:21:27.919Z,3.00
2022-10-04T06:24:15.876Z,2.90
2022-10-04T06:26:53.786Z,3.90
2022-10-04T06:29:32.152Z,3.20
2022-10-04T06:32:11.779Z,3.10
2022-10-04T06:35:44.640Z,2.93
2022-10-04T06:38:44.555Z,3.67
2022-10-04T06:41:36.101Z,3.67
2022-10-04T06:44:37.803Z,3.30
2022-10-04T06:47:38.996Z,3.97
2022-10-04T06:50:39.997Z,3.23
2022-10-04T06:53:17.264Z,4.07
2022-10-04T06:56:07.110Z,3.63
2022-10-04T06:59:09.723Z,3.40
2022-10-04T07:02:06.455Z,3.43
2022-10-04T07:05:06.294Z,3.37
2022-10-04T07:07:41.891Z,3.30
2022-10-04T07:10:26.446Z,2.53
2022-10-04T07:13:16.578Z,2.80
2022-10-04T07:16:06.024Z,3.20
2022-10-04T07:18:44.304Z,2.73
2022-10-04T07:21:17.400Z,3.13
2022-10-04T07:23:51.979Z,2.50
2022-10-04T07:26:49.620Z,3.20
2022-10-04T07:29:30.350Z,3.03
2022-10-04T07:32:08.485Z,2.67
2022-10-04T07:34:53.176Z,2.73
2022-10-04T07:37:21.693Z,2.97
2022-10-04T07:40:22.638Z,3.30
2022-10-04T07:42:55.030Z,2.90
2022-10-04T07:45:32.743Z,2.60
2022-10-04T07:48:19.849Z,2.60
2022-10-04T07:51:04.488Z,2.80
2022-10-04T07:53:42.929Z,2.47
2022-10-04T07:56:25.577Z,2.93
2022-10-04T07:59:07.642Z,2.93
2022-10-04T08:01:49.911Z,3.57
2022-10-04T08:04:37.622Z,3.33
2022-10-04T08:07:28.505Z,3.07
2022-10-04T08:10:25.762Z,3.77
2022-10-04T08:13:09.868Z,4.30
2022-10-04T08:15:42.626Z,4.50
2022-10-04T08:18:28.119Z,3.80
2022-10-04T08:21:16.046Z,4.50
2022-10-04T08:24:07.806Z,4.33
2022-10-04T08:26:51.273Z,5.80
2022-10-04T08:30:01.325Z,7.93
2022-10-04T08:32:28.057Z,5.40
2022-10-04T08:35:47.235Z,5.20
2022-10-04T08:38:43.356Z,6.47
2022-10-04T08:41:28.756Z,4.70
2022-10-04T08:44:49.603Z,6.40
2022-10-04T08:47:33.334Z,5.23
2022-10-04T08:50:25.962Z,5.07
2022-10-04T08:53:43.814Z,6.70
2022-10-04T08:56:38.248Z,5.47
2022-10-04T08:59:50.723Z,6.80
2022-10-04T09:03:14.241Z,5.60
2022-10-04T09:06:18.139Z,4.80
2022-10-04T09:09:35.182Z,5.27
2022-10-04T09:12:53.630Z,4.27
2022-10-04T09:15:43.464Z,4.63
2022-10-04T09:18:13.115Z,4.53
2022-10-04T09:21:11.232Z,3.73
2022-10-04T09:24:25.774Z,3.70
2022-10-04T09:27:26.820Z,3.80
2022-10-04T09:30:18.852Z,4.10
2022-10-04T09:33:03.303Z,3.90
2022-10-04T09:35:54.980Z,4.10
2022-10-04T09:39:30.323Z,3.93
2022-10-04T09:42:51.401Z,4.40
2022-10-04T09:45:45.940Z,3.90
2022-10-04T09:48:54.252Z,4.10
2022-10-04T09:51:58.444Z,4.23
2022-10-04T09:54:56.945Z,4.80
2022-10-04T09:57:49.989Z,5.80
2022-10-04T10:00:25.215Z,4.73
2022-10-04T10:03:31.894Z,4.83
2022-10-04T10:06:21.264Z,5.07
2022-10-04T10:09:50.569Z,4.63
2022-10-04T10:13:06.736Z,5.80
2022-10-04T10:15:44.033Z,6.60
2022-10-04T10:19:08.385Z,6.10
2022-10-04T10:22:26.892Z,4.53
2022-10-04T10:25:25.909Z,4.67
2022-10-04T10:28:04.910Z,5.80
2022-10-04T10:31:13.546Z,4.50
2022-10-04T10:34:18.471Z,5.50
2022-10-04T10:37:05.057Z,4.47
2022-10-04T10:39:38.019Z,4.63
2022-10-04T10:42:42.003Z,5.30
2022-10-04T10:45:27.525Z,5.77
2022-10-04T10:48:06.355Z,5.90
2022-10-04T10:51:03.367Z,5.23
2022-10-04T10:54:06.730Z,4.37
2022-10-04T10:56:45.990Z,5.73
2022-10-04T10:59:34.179Z,4.50
2022-10-04T11:02:37.391Z,4.77
2022-10-04T11:05:33.544Z,4.50
2022-10-04T11:08:30.513Z,4.10
2022-10-04T11:11:03.261Z,4.13
2022-10-04T11:14:11.793Z,4.43
2022-10-04T11:16:59.024Z,3.90
2022-10-04T11:19:57.373Z,3.97
2022-10-04T11:23:02.069Z,4.60
2022-10-04T11:25:45.098Z,3.40
2022-10-04T11:28:19.490Z,3.67
2022-10-04T11:30:58.416Z,3.73
2022-10-04T11:34:18.631Z,3.90
2022-10-04T11:37:07.604Z,3.23
2022-10-04T11:39:44.507Z,3.30
2022-10-04T11:42:56.028Z,3.63
2022-10-04T11:46:08.544Z,4.70
2022-10-04T11:49:24.152Z,4.30
2022-10-04T11:52:22.864Z,3.50
2022-10-04T11:55:10.637Z,3.50
2022-10-04T11:57:53.240Z,3.37
2022-10-04T12:00:46.983Z,2.90
2022-10-04T12:03:44.228Z,3.10
2022-10-04T12:07:14.938Z,2.50
2022-10-04T12:10:28.869Z,2.50
2022-10-04T12:13:16.049Z,3.00
2022-10-04T12:16:29.635Z,2.67
2022-10-04T12:19:26.263Z,2.43
2022-10-04T12:22:23.294Z,2.47
2022-10-04T12:25:26.940Z,3.33
2022-10-04T12:28:12.427Z,2.13
2022-10-04T12:31:04.070Z,2.80
2022-10-04T12:33:45.571Z,2.40
2022-10-04T12:36:50.346Z,3.50
2022-10-04T12:39:45.028Z,2.57
2022-10-04T12:42:45.758Z,2.40
2022-10-04T12:45:41.255Z,3.40
2022-10-04T12:48:49.065Z,2.50
2022-10-04T12:51:33.611Z,2.77
2022-10-04T12:54:39.185Z,2.47
2022-10-04T12:57:39.174Z,2.17
2022-10-04T13:00:23.517Z,2.77
2022-10-04T13:03:20.084Z,3.27
2022-10-04T13:05:46.804Z,2.30
2022-10-04T13:08:24.811Z,2.50
2022-10-04T13:10:57.203Z,2.90
2022-10-04T13:14:11.140Z,2.63
2022-10-04T13:17:30.325Z,2.30
2022-10-04T13:20:34.010Z,2.70
2022-10-04T13:23:36.006Z,2.47
2022-10-04T13:26:30.306Z,1.73
2022-10-04T13:29:07.918Z,2.10
2022-10-04T13:31:50.900Z,2.70
2022-10-04T13:35:09.483Z,2.73
2022-10-04T13:37:52.006Z,2.27
2022-10-04T13:40:37.038Z,2.73
2022-10-04T13:43:15.370Z,2.90
2022-10-04T13:45:57.642Z,2.33
2022-10-04T13:49:07.491Z,2.17
2022-10-04T13:51:49.189Z,2.87
2022-10-04T13:54:56.133Z,2.63
2022-10-04T13:57:48.998Z,2.27
2022-10-04T14:01:09.156Z,2.30
2022-10-04T14:04:09.253Z,2.50
2022-10-04T14:07:16.477Z,2.37
2022-10-04T14:10:43.462Z,2.57
2022-10-04T14:13:37.361Z,1.87
2022-10-04T14:16:37.900Z,2.70
2022-10-04T14:19:43.810Z,1.87
2022-10-04T14:22:36.222Z,2.33
2022-10-04T14:26:03.453Z,1.70
2022-10-04T14:29:03.766Z,1.80
2022-10-04T14:32:13.969Z,2.30
2022-10-04T14:35:14.938Z,2.00
2022-10-04T14:38:24.511Z,2.73
2022-10-04T14:41:20.596Z,2.17
2022-10-04T14:44:33.511Z,3.13
2022-10-04T14:47:36.718Z,2.73
2022-10-04T14:50:44.246Z,2.40
2022-10-04T14:53:32.210Z,3.07
2022-10-04T14:56:21.589Z,2.33
2022-10-04T14:59:14.667Z,2.43
2022-10-04T15:02:01.486Z,3.00
2022-10-04T15:05:02.896Z,2.70
2022-10-04T15:07:36.714Z,3.10
2022-10-04T15:10:22.559Z,2.47
2022-10-04T15:13:25.472Z,2.63
2022-10-04T15:16:02.209Z,2.10
2022-10-04T15:18:45.950Z,1.80
2022-10-04T15:21:35.491Z,2.03
2022-10-04T15:24:27.707Z,1.87
2022-10-04T15:27:15.899Z,2.20
2022-10-04T15:30:15.437Z,2.60
2022-10-04T15:33:06.540Z,2.10
2022-10-04T15:36:17.074Z,2.43
2022-10-04T15:39:02.916Z,2.10
2022-10-04T15:42:01.950Z,2.00
2022-10-04T15:44:47.322Z,2.50
2022-10-04T15:47:49.323Z,2.30
2022-10-04T15:50:33.329Z,3.80
2022-10-04T15:53:47.442Z,2.70
2022-10-04T15:56:35.872Z,2.93
2022-10-04T15:59:32.359Z,3.10
2022-10-04T16:02:20.496Z,3.80
2022-10-04T16:05:32.522Z,3.97
2022-10-04T16:08:22.538Z,4.43
2022-10-04T16:11:00.380Z,2.53
2022-10-04T16:13:49.289Z,2.30
2022-10-04T16:16:16.117Z,2.60
2022-10-04T16:18:57.671Z,2.50
2022-10-04T16:21:52.588Z,3.27
2022-10-04T16:24:25.006Z,3.00
2022-10-04T16:26:51.753Z,2.90
2022-10-04T16:29:36.524Z,3.27
2022-10-04T16:32:27.215Z,3.07
2022-10-04T16:35:00.114Z,5.40
2022-10-04T16:38:00.177Z,4.93
2022-10-04T16:40:35.545Z,6.20
2022-10-04T16:43:17.563Z,5.00
2022-10-04T16:46:23.195Z,4.00
2022-10-04T16:49:01.209Z,7.67
2022-10-04T16:51:45.604Z,6.27
2022-10-04T16:54:52.775Z,4.40
2022-10-04T16:57:27.426Z,3.20
2022-10-04T17:00:47.858Z,3.00
2022-10-04T17:03:32.510Z,3.70
2022-10-04T17:06:16.230Z,3.70
2022-10-04T17:09:36.981Z,3.63
2022-10-04T17:12:28.622Z,3.73
2022-10-04T17:15:09.350Z,4.03
2022-10-04T17:17:54.478Z,4.30
2022-10-04T17:20:32.577Z,4.63
2022-10-04T17:23:55.827Z,4.33
2022-10-04T17:26:45.733Z,3.97
2022-10-04T17:29:47.281Z,4.30
2022-10-04T17:32:30.295Z,3.60
2022-10-04T17:35:34.921Z,4.10
2022-10-04T17:38:26.853Z,4.93
2022-10-04T17:41:08.484Z,4.93
2022-10-04T17:43:58.048Z,4.17
2022-10-04T17:46:59.910Z,4.60
2022-10-04T17:50:25.509Z,4.63
2022-10-04T17:53:19.444Z,4.60
2022-10-04T17:56:21.688Z,4.57
2022-10-04T17:58:57.504Z,4.63
2022-10-04T18:01:48.818Z,4.27
2022-10-04T18:04:36.765Z,4.20
2022-10-04T18:07:31.498Z,4.90
2022-10-04T18:10:22.277Z,3.97
2022-10-04T18:13:06.164Z,5.00
2022-10-04T18:15:44.414Z,4.90
2022-10-04T18:18:11.452Z,5.23
2022-10-04T18:20:55.053Z,4.93
2022-10-04T18:23:30.886Z,4.40
2022-10-04T18:26:15.326Z,5.57
2022-10-04T18:28:47.293Z,5.10
2022-10-04T18:31:20.624Z,5.10
2022-10-04T18:33:54.199Z,5.50
2022-10-04T18:36:32.257Z,5.33
2022-10-04T18:39:18.518Z,5.33
2022-10-04T18:42:29.677Z,5.77
2022-10-04T18:45:23.365Z,6.33
2022-10-04T18:47:55.796Z,6.63
2022-10-04T18:50:47.060Z,7.10
2022-10-04T18:54:12.366Z,6.00
2022-10-04T18:57:18.079Z,6.13
2022-10-04T19:00:29.035Z,5.80
2022-10-04T19:03:22.564Z,5.80
2022-10-04T19:06:07.555Z,5.93
2022-10-04T19:08:57.998Z,5.90
2022-10-04T19:11:37.420Z,6.20
2022-10-04T19:14:32.715Z,6.03
2022-10-04T19:17:04.715Z,5.30
2022-10-04T19:19:40.751Z,5.80
2022-10-04T19:22:32.638Z,6.27
2022-10-04T19:25:30.555Z,5.80
2022-10-04T19:28:07.193Z,5.50
2022-10-04T19:30:52.083Z,7.53
2022-10-04T19:33:31.431Z,6.00
2022-10-04T19:36:46.319Z,6.00
2022-10-04T19:39:44.215Z,6.77
2022-10-04T19:42:45.583Z,6.43
2022-10-04T19:45:33.377Z,6.03
2022-10-04T19:48:08.265Z,6.10
2022-10-04T19:50:48.549Z,6.57
2022-10-04T19:53:45.803Z,7.10
2022-10-04T19:56:24.314Z,7.27
2022-10-04T19:59:28.147Z,6.43
2022-10-04T20:01:56.792Z,8.13
2022-10-04T20:04:35.783Z,6.23
2022-10-04T20:07:25.728Z,6.87
2022-10-04T20:09:56.869Z,6.30
2022-10-04T20:12:41.383Z,6.50
2022-10-04T20:15:17.390Z,6.60
2022-10-04T20:17:49.227Z,6.20
2022-10-04T20:20:38.866Z,6.63
2022-10-04T20:23:12.654Z,6.40
2022-10-04T20:25:45.901Z,5.90
2022-10-04T20:28:32.807Z,6.90
2022-10-04T20:31:02.967Z,7.97
2022-10-04T20:33:50.309Z,8.17
2022-10-04T20:36:22.298Z,7.13
2022-10-04T20:38:50.767Z,7.90
2022-10-04T20:41:30.121Z,8.53
2022-10-04T20:44:06.317Z,6.67
2022-10-04T20:46:53.049Z,6.90
2022-10-04T20:49:22.384Z,7.50
2022-10-04T20:51:50.093Z,7.77
2022-10-04T20:54:18.736Z,6.97
2022-10-04T20:56:51.375Z,7.20
2022-10-04T20:59:18.781Z,6.47
2022-10-04T21:02:10.850Z,8.20
2022-10-04T21:04:46.539Z,5.97
2022-10-04T21:07:33.627Z,7.70
2022-10-04T21:10:16.473Z,8.10
2022-10-04T21:12:47.299Z,7.50
2022-10-04T21:15:18.421Z,8.13
2022-10-04T21:18:04.849Z,7.30
2022-10-04T21:21:03.719Z,6.93
2022-10-04T21:23:35.387Z,6.67
2022-10-04T21:26:27.927Z,6.50
2022-10-04T21:29:01.741Z,6.57
2022-10-04T21:31:28.596Z,6.97
2022-10-04T21:33:55.664Z,6.10
2022-10-04T21:36:25.610Z,5.70
2022-10-04T21:38:54.187Z,6.03
2022-10-04T21:41:23.249Z,6.20
2022-10-04T21:43:52.539Z,6.17
2022-10-04T21:46:22.318Z,7.30
2022-10-04T21:48:49.458Z,6.33
2022-10-04T21:51:19.426Z,6.53
2022-10-04T21:53:49.311Z,6.80
2022-10-04T21:56:16.401Z,6.93
2022-10-04T21:58:43.244Z,6.60
2022-10-04T22:01:12.485Z,5.53
2022-10-04T22:03:39.320Z,5.87
2022-10-04T22:06:06.256Z,6.10
2022-10-04T22:08:37.584Z,6.57
2022-10-04T22:11:05.922Z,5.17
2022-10-04T22:13:35.441Z,6.03
2022-10-04T22:16:05.411Z,6.40
2022-10-04T22:18:35.299Z,6.93
2022-10-04T22:21:08.392Z,6.60
2022-10-04T22:23:46.665Z,6.67
2022-10-04T22:26:17.636Z,6.90
2022-10-04T22:28:49.055Z,6.70
2022-10-04T22:31:29.192Z,6.97
2022-10-04T22:33:57.274Z,7.10
2022-10-04T22:36:34.847Z,7.20
2022-10-04T22:39:11.002Z,6.70
2022-10-04T22:41:54.255Z,6.80
2022-10-04T22:44:37.546Z,6.70
2022-10-04T22:47:10.540Z,5.83
2022-10-04T22:49:44.527Z,6.07
2022-10-04T22:52:23.936Z,5.93
2022-10-04T22:54:57.877Z,6.00
2022-10-04T22:57:25.231Z,6.40
2022-10-04T22:59:54.946Z,6.50
2022-10-04T23:02:26.963Z,6.30
2022-10-04T23:05:11.811Z,7.07
2022-10-04T23:07:41.855Z,5.93
2022-10-04T23:10:12.491Z,6.63
2022-10-04T23:12:40.763Z,6.97
2022-10-04T23:15:09.825Z,6.47
2022-10-04T23:17:43.648Z,6.60
2022-10-04T23:20:20.465Z,6.37
2022-10-04T23:22:52.728Z,6.77
2022-10-04T23:25:28.771Z,6.73
2022-10-04T23:28:07.965Z,6.07
2022-10-04T23:30:37.386Z,6.37
2022-10-04T23:33:20.555Z,6.40
2022-10-04T23:35:49.467Z,6.60
2022-10-04T23:38:19.363Z,7.00
2022-10-04T23:40:48.792Z,5.97
2022-10-04T23:43:25.042Z,7.00
2022-10-04T23:46:00.475Z,6.07
2022-10-04T23:48:37.918Z,6.10
2022-10-04T23:51:07.340Z,6.80
2022-10-04T23:53:36.445Z,6.50
2022-10-04T23:56:20.060Z,6.60
2022-10-04T23:58:51.542Z,6.37
